Flight Track Log - Related Links

Times and Time Zones

All times are in EST time to prevent confusion due to time zone crossing. See the SWA101 flight status page for this flight to view local times or setup timezone preferences in your user account.

Time Position Orientation Groundspeed Altitude Reporting Facility
EST Latitude Longitude Course Direction KTS MPH feet Rate Location/Type
Thu 12:09:32 PM 38.6717 -121.6008 129° Southeast 142 163 1,600  Level Oakland Center
Thu 12:10:06 PM 38.6500 -121.5667 129° Southeast 185 213 3,200 2,170 Climbing Northern Cal TRACON
Thu 12:11:06 PM 38.6333 -121.5000 108° East 258 297 5,000 2,600 Climbing Northern Cal TRACON
Thu 12:12:06 PM 38.6167 -121.4000 102° East 289 333 8,400 3,200 Climbing Northern Cal TRACON
Thu 12:12:36 PM 38.6081 -121.3489 102° East 288 331 9,800 2,835 Climbing Oakland Center
Thu 12:13:37 PM 38.5900 -121.2306 101° East 337 388 12,700 2,951 Climbing Oakland Center
Thu 12:14:38 PM 38.5697 -121.1022 101° East 378 435 15,800 3,122 Climbing Oakland Center
Thu 12:15:40 PM 38.5483 -120.9614 101° East 399 459 19,100 2,976 Climbing Oakland Center
Thu 12:16:41 PM 38.5253 -120.8119 101° East 424 488 21,900 2,829 Climbing Oakland Center
Thu 12:17:43 PM 38.4950 -120.6264 102° East 443 510 24,900 1,902 Climbing Oakland Center
Thu 12:18:44 PM 38.4694 -120.4656 101° East 461 531 25,800 1,426 Climbing Oakland Center
Thu 12:19:45 PM 38.4422 -120.2983 102° East 478 550 27,800 1,561 Climbing Oakland Center
Thu 12:20:47 PM 38.4147 -120.1264 101° East 495 570 29,000 585 Climbing Oakland Center
Thu 12:21:48 PM 38.3872 -119.9572 102° East 491 565 29,000 197 Level Oakland Center
Thu 12:22:49 PM 38.3578 -119.7847 102° East 498 573 29,400 976 Climbing Oakland Center
Thu 12:23:51 PM 38.3289 -119.6067 102° East 515 593 31,000 780 Climbing Oakland Center
Thu 12:24:52 PM 38.2964 -119.4189 102° East 513 590 31,000  Level Oakland Center
Thu 12:25:53 PM 38.2683 -119.2456 102° East 507 583 31,000  Level Oakland Center
Thu 12:26:55 PM 38.2375 -119.0744 103° East 501 577 31,000  Level Oakland Center
Thu 12:27:56 PM 38.2072 -118.9028 103° East 500 575 31,000  Level Oakland Center
Thu 12:28:57 PM 38.1781 -118.7300 102° East 502 578 31,000 244 Level Oakland Center
Thu 12:29:59 PM 38.1400 -118.5192 103° East 510 587 31,500 878 Climbing Oakland Center
Thu 12:31:00 PM 38.0922 -118.3483 110° East 517 595 32,800 738 Climbing Oakland Center
Thu 12:32:01 PM 38.0075 -118.2083 127° Southeast 501 577 33,000 98 Climbing Oakland Center
Thu 12:33:03 PM 37.9272 -118.0781 128° Southeast 476 548 33,000 -49 Level Oakland Center
Thu 12:34:04 PM 37.8447 -117.9436 128° Southeast 482 555 32,900  Descending Oakland Center
Thu 12:35:05 PM 37.7628 -117.8094 128° Southeast 488 562 33,000 49 Climbing Oakland Center
Thu 12:36:07 PM 37.6825 -117.6806 128° Southeast 477 549 33,000  Level Oakland Center
Thu 12:37:08 PM 37.6019 -117.5525 128° Southeast 471 542 33,000  Level Oakland Center
Thu 12:38:09 PM 37.5042 -117.3958 128° Southeast 474 545 33,000  Level Oakland Center
Thu 12:39:11 PM 37.4172 -117.2689 131° Southeast 482 555 33,000  Level Oakland Center
Thu 12:40:12 PM 37.3100 -117.1772 146° Southeast 470 541 33,000 -144 Level Oakland Center
Thu 12:41:16 PM 37.2033 -117.0858 146° Southeast 464 534 32,700 -476 Descending Los Angeles Center
Thu 12:42:18 PM 37.0961 -116.9956 146° Southeast 463 533 32,000 -816 Descending Los Angeles Center
Thu 12:43:21 PM 36.9906 -116.9058 146° Southeast 459 528 31,000 -1,056 Descending Los Angeles Center
Thu 12:44:23 PM 36.8633 -116.8022 147° Southeast 457 526 29,800 -1,258 Descending Los Angeles Center
Thu 12:45:25 PM 36.7647 -116.6997 140° Southeast 460 529 28,400 -1,548 Descending Los Angeles Center
Thu 12:46:27 PM 36.6789 -116.5711 130° Southeast 475 547 26,600 -1,452 Descending Los Angeles Center
Thu 12:47:29 PM 36.5922 -116.4497 132° Southeast 471 542 25,400 -1,694 Descending Los Angeles Center
Thu 12:48:31 PM 36.4964 -116.3147 131° Southeast 459 528 23,100 -2,064 Descending Los Angeles Center
Thu 12:49:34 PM 36.4142 -116.1961 131° Southeast 449 517 21,100 -2,021 Descending Los Angeles Center
Thu 12:50:06 PM 36.3689 -116.1408 135° Southeast 444 511 19,900 -2,160 Descending Los Angeles Center
Thu 12:50:24 PM 36.3419 -116.1042 132° Southeast 434 499 19,300 -1,800 Descending Los Angeles Center
Thu 12:50:36 PM 36.3311 -116.0803 119° Southeast 422 486 19,000 -1,770 Descending Los Angeles Center
Thu 12:51:25 PM 36.2692 -116.0022 135° Southeast 396 456 17,500 -1,935 Descending Los Angeles Center
Thu 12:51:38 PM 36.2583 -115.9761 117° Southeast 402 463 17,000 -1,475 Descending Los Angeles Center
Thu 12:52:26 PM 36.2025 -115.9011 133° Southeast 388 447 16,000 -968 Descending Los Angeles Center
Thu 12:52:40 PM 36.1958 -115.8744 107° East 378 435 16,000 -98 Level Los Angeles Center
Thu 12:53:27 PM 36.1597 -115.7792 115° Southeast 360 414 15,900 -387 Descending Los Angeles Center
Thu 12:53:42 PM 36.1542 -115.7514 104° East 362 417 15,600 -1,377 Descending Los Angeles Center
Thu 12:54:28 PM 36.1253 -115.6681 113° Southeast 351 404 14,500 -1,355 Descending Los Angeles Center
Thu 12:54:44 PM 36.1172 -115.6417 111° Southeast 347 399 14,200 -1,475 Descending Los Angeles Center
Thu 12:55:29 PM 36.0889 -115.5575 113° Southeast 347 399 13,000 -1,548 Descending Los Angeles Center
Thu 12:55:46 PM 36.0792 -115.5228 109° East 346 398 12,600 -1,574 Descending Los Angeles Center
Thu 12:56:30 PM 36.0542 -115.4467 112° Southeast 347 399 11,400 -1,429 Descending Los Angeles Center
Thu 12:56:49 PM 36.0428 -115.4133 113° Southeast 345 397 11,100 -689 Descending Los Angeles Center
Thu 12:57:31 PM 36.0278 -115.3436 105° East 316 364 10,700 -871 Descending Los Angeles Center
Thu 12:57:51 PM 36.0261 -115.3008 93° East 309 356 10,200 -1,100 Descending Los Angeles Center
Thu 12:58:31 PM 36.0208 -115.2317 95° East 299 344 9,600 -968 Descending Los Angeles Center
Thu 12:58:53 PM 36.0192 -115.2003 94° East 298 343 9,200 -1,574 Descending Los Angeles Center
Thu 12:59:32 PM 36.0144 -115.1328 95° East 290 334 8,000 -1,161 Descending Los Angeles Center
Thu 12:59:55 PM 36.0119 -115.0975 95° East 284 327 8,000  Level Los Angeles Center
Thu 01:00:33 PM 36.0081 -115.0444 95° East 246 283 8,000 -484 Level Los Angeles Center
Thu 01:00:57 PM 36.0072 -115.0169 92° East 235 270 7,500 -1,180 Descending Los Angeles Center
Thu 01:01:34 PM 36.0039 -114.9661 95° East 229 264 6,800 -1,065 Descending Los Angeles Center
Thu 01:01:59 PM 36.0022 -114.9339 94° East 227 261 6,400 -1,082 Descending Los Angeles Center
Thu 01:02:35 PM 35.9992 -114.8850 94° East 226 260 5,700 -871 Descending Los Angeles Center
Thu 01:03:01 PM 36.0050 -114.8614 73° East 235 270 5,500 -197 Descending Los Angeles Center
Thu 01:03:36 PM 36.0444 -114.8461 17° North 215 247 5,500  Level Los Angeles Center
Thu 01:04:03 PM 36.0586 -114.8544 335° Northwest 221 254 5,500  Level Los Angeles Center
Thu 01:04:37 PM 36.0731 -114.8872 299° West 175 201 5,500  Level Los Angeles Center
Thu 01:05:06 PM 36.0742 -114.9114 273° West 163 188 5,500 -393 Level Los Angeles Center
Thu 01:05:38 PM 36.0739 -114.9400 269° West 157 181 5,100 -871 Descending Los Angeles Center
Thu 01:06:08 PM 36.0739 -114.9678 270° West 153 176 4,600 -885 Descending Los Angeles Center
Thu 01:06:39 PM 36.0742 -114.9906 271° West 148 170 4,200 -774 Descending Los Angeles Center
Thu 01:07:10 PM 36.0739 -115.0183 269° West 149 171 3,800 -885 Descending Los Angeles Center
Thu 01:07:40 PM 36.0733 -115.0467 269° West 152 175 3,300 -774 Descending Los Angeles Center
Thu 01:08:12 PM 36.0736 -115.0728 271° West 147 169 3,000 -700 Descending Los Angeles Center
Thu 01:08:40 PM 36.0725 -115.0922 266° West 136 157 2,600 -774 Descending Los Angeles Center
Thu 01:09:14 PM 36.0731 -115.1183 272° West 135 155 2,200 -706 Descending Los Angeles Center
Thu 01:11:00 PM 36.0667 -115.1500 270° West  Level FlightAware Approximate

Login

Don't have an account? Register now (free) for customized features, flight alerts, and more!